Aktualne dane pomiarowe

Uwaga, wersja testowa! Automatyczne pobieranie danych za pomocą narzędzi lub skryptów to umożliwiających jest zabronione.

Dane meteo z obszaru Polski uzyskane na podstawie depesz SYNOP pobieranych co godzinę z NWS. Najedź myszką na symbol przedstawiony w tabeli, aby uzyskać informacje co do jego znaczenia. Prosimy pamiętać, że to testowa wersja strony, która jeszcze nie jest ukończona. Stworzono również jest krótki FAQ dotyczący korzystania z tej podstrony Anomalie temperatury w chwili obecnej odniesione są do okresu referencyjnego 1951-2016. Okres ten będzie później zmieniony na 1981-2010. Kliknij ikonę aby pobrać plik CSV. Kliknij ikonę aby wygenerować mapę synoptyczną dla danego terminu.

Wybierz Datę:    

        

Kraków-Balice (12566)

Dane terminowe dla wybranej stacji. Kliknij datę, aby otrzymać dane z tego terminu dla wszystkich stacji.

TemperaturaZachmurzenieWiatrCiśnienieOpadyPogoda
 Data t td wb tx tn tg rh  Nt Nl Cl Cm Ch ws wd g1 g2 wx mslp ppp ch 24h 12h t ww ww w1 w2  
2019-06-19 23:00:00 19.3 16.3 17.2--- 8335.0wx-wxwx0----1011.4 983.3 -0.6---------
2019-06-19 22:00:00 19.8 16.2 17.3--- 8040.0wx-wxwx0----1011.2 983.1 -0.4---------
2019-06-19 21:00:00 21.6 15.7 17.7--- 6940.0wx-wxwx0---01011.6 983.7 0.3---------
2019-06-19 20:00:00 22.7 15.5 18.0--- 6440.0wx-wxwx2wx--21011.7 983.9 0.7---------
2019-06-19 19:00:00 23.9 15.9 18.7--- 6140.0wx-wxwx3wx--31011.2 983.5 0.1---------
2019-06-19 18:00:00 24.9 15.8 19.0 28.7 21.4- 5740.0wx-wxwx1wx-1311011.0 983.4 -0.4--12wx-w1w2--
2019-06-19 17:00:00 25.3 15.9 19.2--- 5635.0wxwxwxwxwx2wx--21010.7 983.2 -0.7---------
2019-06-19 16:00:00 26.5 16.1 19.8--- 5340.0wxwxwxwxwx3wx--31010.8 983.4 -1.4---------
2019-06-19 15:00:00 26.4 15.7 19.5--- 5240.0wxwxwxwxwx1wx---1011.3 983.8 -0.6---wx-w1w2--
2019-06-19 14:00:00 23.6 16.4 18.8--- 6440.0wxwxwxwx3wx--31011.6 983.9 -1.0---wx---
2019-06-19 13:00:00 22.2 15.8 17.9--- 6740.0wxwxwxwx5wx-1351012.7 984.8 -0.6---wx---
2019-06-19 12:00:00 28.0 14.6 19.5--- 4440.0wxwxwxwx2wx--21011.7 984.4 -1.4- 0.06------
2019-06-19 11:00:00 28.3 14.9 19.8--- 4440.0wxwxwxwx1wx--11012.2 984.9 -1.4---------
2019-06-19 10:00:00 27.4 14.8 19.4--- 4640.0wxwxwxwx2wx--21012.8 985.4 -1.1---------
2019-06-19 09:00:00 26.8 15.8 19.7--- 5140.0wxwxwxwxwx2wx--21013.3 985.8 -0.8---------
2019-06-19 08:00:00 25.7 16.5 19.7--- 5735.0wxwxwxwx0----1013.9 986.3 -0.3---------
2019-06-19 07:00:00 23.3 17.5 19.3--- 7020.0wx-wxwx1wx--11014.3 986.5 -0.2---------
2019-06-19 06:00:00 21.4 17.6 18.7 22.7 16.5 14 7915.0wx-wx2wx--21014.6 986.6 0.0- 0.012------
2019-06-19 05:00:00 19.1 17.1 17.7--- 888.0wx-wx2wx--21014.8 986.6 -0.1---wx---
2019-06-19 04:00:00 17.9 16.6 17.0--- 928.0wx-wxwx1wx--11015.1 986.7 -0.2---wx---
2019-06-19 03:00:00 16.6 16.0 16.1--- 968.0wx-wxwx3wx---1015.1 986.6 -0.8---wx---
2019-06-19 02:00:00 16.9 15.8 16.1--- 9310.0wx-wxwx2wx--21015.2 986.7 -1.0---------
2019-06-19 01:00:00 17.0 15.9 16.2--- 9310.0wx-wxwx3wx--31015.4 986.9 -1.0---------
2019-06-19 00:00:00 16.7 15.1 15.6--- 9015.0wx-wxwx2wx--21015.9 987.4 -1.0- 0.06------
2019-06-18 23:00:00 17.7 15.7 16.3--- 8820.0wx-wxwx1wx--11016.1 987.7 -0.8---------
2019-06-18 22:00:00 17.7 15.5 16.1--- 8720.0wx-wx3wx---1016.3 987.9 -0.5---------
2019-06-18 21:00:00 18.3 15.4 16.3--- 8325.0wx-wx3wx--31016.8 988.4 0.1---------
2019-06-18 20:00:00 20.2 15.8 17.2--- 7625.0wx-wx2wx--21016.7 988.5 0.1---------
2019-06-18 19:00:00 20.9 15.9 17.5--- 7330.0wx-wx2wx--21016.5 988.4 -0.3---------
2019-06-18 18:00:00 22.7 15.8 18.1 25.1 19.2- 6530.0wx-wx4wx--41016.2 988.3 -0.7- 0.012------
2019-06-18 17:00:00 23.6 14.9 18.0--- 5835.0wxwxwxwx6wx---1016.3 988.4 -1.1---------
2019-06-18 16:00:00 24.3 14.7 18.2--- 5540.0wxwxwxwx5wx--51016.5 988.7 -1.2---------
2019-06-18 15:00:00 24.4 15.1 18.4--- 5640.0wxwxwxwx5wx---1016.8 989.0 -1.6---------
2019-06-18 14:00:00 23.9 15.1 18.2--- 5840.0wxwxwxwx4wx--41017.4 989.5 -1.4---------
2019-06-18 13:00:00 25.0 14.8 18.5--- 5340.0wxwxwxwx6wx--61017.7 989.9 -1.2---------
2019-06-18 12:00:00 23.8 14.5 17.9--- 5640.0wxwxwx5wx-951018.5 990.6 -0.7- 0.06------
2019-06-18 11:00:00 23.0 14.6 17.6--- 5950.0wxwxwx4wx--41018.9 990.9 -0.7---------
2019-06-18 10:00:00 23.0 14.0 17.3--- 5750.0wxwxwxwx5wx--51019.1 991.1 -0.9---------
2019-06-18 09:00:00 22.3 14.4 17.2--- 6140.0wxwxwxwx6wx-961019.4 991.3 -0.8---------
2019-06-18 08:00:00 21.7 14.6 17.1--- 6435.0wxwxwxwx4wx9941019.7 991.6 -0.4---------
2019-06-18 07:00:00 20.4 14.5 16.5--- 6925.0wxwxwxwxwx4wx---1020.3 992.0 0.3---------
2019-06-18 06:00:00 19.2 14.5 16.1 21.3 13.2 10 7430.0wx-wx4wx---1020.5 992.1 0.5---------
2019-06-18 05:00:00 17.7 14.2 15.3--- 8035.0wx-wxwx4wx--41020.5 992.0 0.3---------
2019-06-18 04:00:00 16.0 13.8 14.5--- 8730.0wx-wx2wx--21020.4 991.7 -0.1---------
2019-06-18 03:00:00 13.4 12.0 12.4--- 9130.0wx-wx1wx--11020.6 991.6 -0.4---------
2019-06-18 02:00:00 13.7 12.3 12.7--- 9130.0wx-wx2wx---1020.6 991.7 -0.5---------
2019-06-18 01:00:00 13.8 12.5 12.9--- 9230.0wx-wx2wx---1020.7 991.8 -0.4---------
2019-06-18 00:00:00 14.0 12.6 13.0--- 9130.0wx-wx2wx--21020.9 992.0 0.0- 0.06------
2.2 ms

 

Print Friendly, PDF & Email